Time;durP1;ratioP1;P1;durP2;ratioP2;P2;SDS_P1;SDS_P2;PMS_P1;PMS_P2;Temp;Humidity;BMP_temperature;BMP_pressure;BME280_temperature;BME280_humidity;BME280_pressure;Samples;Min_cycle;Max_cycle;Signal;HPM_P1;HPM_P2
2022/10/23 00:01:20;;;;;;;10.55;6.82;;;19.80;96.70;;;;;;4973850;28;20102;-74
2022/10/23 00:03:51;;;;;;;9.95;6.22;;;19.80;96.70;;;;;;4985758;28;20057;-74
2022/10/23 00:06:19;;;;;;;7.68;6.13;;;19.80;96.70;;;;;;4975614;28;20054;-74
2022/10/23 00:08:48;;;;;;;10.95;6.50;;;19.90;96.70;;;;;;4981308;28;20038;-73
2022/10/23 00:11:20;;;;;;;12.18;6.80;;;19.80;96.70;;;;;;5000369;28;20121;-73
2022/10/23 00:13:49;;;;;;;14.45;6.60;;;19.70;96.70;;;;;;4972551;28;20129;-74
2022/10/23 00:16:17;;;;;;;10.05;6.50;;;19.70;96.70;;;;;;4974987;28;20133;-74
2022/10/23 00:18:46;;;;;;;7.97;6.05;;;19.80;96.70;;;;;;4969951;28;20479;-74
2022/10/23 00:21:16;;;;;;;10.57;6.18;;;19.80;96.70;;;;;;4977366;28;20049;-74
2022/10/23 00:23:45;;;;;;;9.80;6.05;;;19.80;96.70;;;;;;4970611;28;20050;-74
2022/10/23 00:26:14;;;;;;;11.15;5.90;;;19.80;96.70;;;;;;4979813;28;20053;-74
2022/10/23 00:28:46;;;;;;;12.68;6.40;;;19.70;96.70;;;;;;4975596;28;20058;-73
2022/10/23 00:31:14;;;;;;;9.50;5.75;;;19.70;96.70;;;;;;4991848;28;20050;-73
2022/10/23 00:33:43;;;;;;;11.88;6.03;;;19.70;96.70;;;;;;4977764;28;20510;-74
2022/10/23 00:36:14;;;;;;;9.63;5.25;;;19.60;96.70;;;;;;4953348;28;20054;-74
2022/10/23 00:38:44;;;;;;;13.95;6.80;;;19.60;96.70;;;;;;4990369;28;20046;-74
2022/10/23 00:41:15;;;;;;;14.50;6.30;;;19.50;96.70;;;;;;4994232;28;20049;-74
2022/10/23 00:44:05;;;;;;;11.55;6.75;;;19.50;96.70;;;;;;4968759;28;20058;-74
2022/10/23 00:46:34;;;;;;;11.25;5.60;;;19.60;96.70;;;;;;4943876;28;20051;-74
2022/10/23 00:49:03;;;;;;;15.40;6.30;;;19.60;96.70;;;;;;4972485;28;20069;-74
2022/10/23 00:51:38;;;;;;;10.65;5.78;;;19.60;96.70;;;;;;4971458;28;20400;-74
2022/10/23 00:54:07;;;;;;;10.32;6.07;;;19.60;96.70;;;;;;4977145;28;20689;-74
2022/10/23 00:56:55;;;;;;;10.40;6.35;;;19.70;96.70;;;;;;4981386;28;20065;-74
2022/10/23 00:59:25;;;;;;;11.57;5.45;;;19.60;96.70;;;;;;4974732;28;20047;-74
2022/10/23 01:01:53;;;;;;;10.60;5.95;;;19.60;96.70;;;;;;4952407;28;20413;-74
2022/10/23 01:04:23;;;;;;;9.98;6.47;;;19.50;96.70;;;;;;4966384;28;20046;-73
2022/10/23 01:06:58;;;;;;;10.38;5.80;;;19.50;96.70;;;;;;4964507;28;20046;-73
2022/10/23 01:09:31;;;;;;;11.07;5.80;;;19.60;96.70;;;;;;4970677;28;20104;-75
2022/10/23 01:12:06;;;;;;;;;;;19.50;96.70;;;;;;4993444;28;20045;-74
2022/10/23 01:14:42;;;;;;;11.93;5.53;;;19.60;96.70;;;;;;4984507;28;19934;-74
2022/10/23 01:17:18;;;;;;;8.85;5.65;;;19.60;96.70;;;;;;4993980;28;20100;-74
2022/10/23 01:19:58;;;;;;;10.23;5.60;;;19.60;96.70;;;;;;4967385;28;20510;-74
2022/10/23 01:22:40;;;;;;;7.63;4.88;;;19.60;96.70;;;;;;4965318;28;20050;-74
2022/10/23 01:25:21;;;;;;;9.90;5.70;;;19.60;96.70;;;;;;4975865;28;20061;-74
2022/10/23 01:27:55;;;;;;;8.02;5.55;;;19.60;96.70;;;;;;4967574;28;20430;-73
2022/10/23 01:30:23;;;;;;;9.43;5.60;;;19.60;96.70;;;;;;4950141;28;20062;-74
2022/10/23 01:32:55;;;;;;;10.82;5.80;;;19.60;96.70;;;;;;4964971;28;20526;-73
2022/10/23 01:35:27;;;;;;;9.57;5.40;;;19.70;96.70;;;;;;4985832;28;20763;-74
2022/10/23 01:38:05;;;;;;;7.63;5.65;;;19.70;96.70;;;;;;4951949;28;20066;-73
2022/10/23 01:40:37;;;;;;;8.65;5.38;;;19.70;96.70;;;;;;4966414;28;20056;-74
2022/10/23 01:43:12;;;;;;;9.82;5.75;;;19.60;96.70;;;;;;4979064;28;20070;-74
2022/10/23 01:45:49;;;;;;;9.90;6.00;;;19.60;96.70;;;;;;4985964;28;20461;-74
2022/10/23 01:48:25;;;;;;;8.82;6.25;;;19.70;96.70;;;;;;4960545;28;20057;-73
2022/10/23 01:50:57;;;;;;;10.23;5.40;;;19.70;96.70;;;;;;4972361;28;20042;-73
2022/10/23 01:53:29;;;;;;;9.30;5.63;;;19.60;96.70;;;;;;4961157;28;20057;-74
2022/10/23 01:56:00;;;;;;;7.65;5.75;;;19.60;96.70;;;;;;4982093;28;20459;-74
2022/10/23 01:58:31;;;;;;;9.23;5.63;;;19.60;96.70;;;;;;4970447;28;20049;-74
2022/10/23 02:01:03;;;;;;;10.93;5.47;;;19.50;96.70;;;;;;4968105;28;20061;-73
2022/10/23 02:03:34;;;;;;;7.32;5.10;;;19.60;96.70;;;;;;4957186;28;20149;-73
2022/10/23 02:06:02;;;;;;;8.52;5.75;;;19.60;96.70;;;;;;4967594;28;20657;-74
2022/10/23 02:08:31;;;;;;;11.13;6.07;;;19.60;96.70;;;;;;4951746;28;20034;-73
2022/10/23 02:11:06;;;;;;;7.45;5.85;;;19.60;96.70;;;;;;4977285;28;20057;-73
2022/10/23 02:13:43;;;;;;;9.48;5.32;;;19.50;96.70;;;;;;4959588;28;20613;-74
2022/10/23 02:16:25;;;;;;;9.40;5.63;;;19.50;96.70;;;;;;4962653;28;21039;-74
2022/10/23 02:19:02;;;;;;;8.63;5.75;;;19.50;96.70;;;;;;4968010;28;20056;-73
2022/10/23 02:21:37;;;;;;;10.85;5.60;;;19.50;96.70;;;;;;4969972;28;20061;-73
2022/10/23 02:24:11;;;;;;;11.13;5.53;;;19.50;96.70;;;;;;4975996;28;20050;-74
2022/10/23 02:26:51;;;;;;;8.70;5.63;;;19.50;96.70;;;;;;4967981;28;20523;-74
2022/10/23 02:29:27;;;;;;;8.25;5.18;;;19.40;96.70;;;;;;4973211;28;20046;-75
2022/10/23 02:31:57;;;;;;;11.18;5.00;;;19.50;96.70;;;;;;4965259;28;20046;-74
2022/10/23 02:34:26;;;;;;;9.43;5.15;;;19.50;96.70;;;;;;4964716;28;20058;-74
2022/10/23 02:36:54;;;;;;;8.27;5.35;;;19.50;96.70;;;;;;4971678;28;20464;-74
2022/10/23 02:39:24;;;;;;;9.07;5.20;;;19.50;96.70;;;;;;4952572;28;20166;-74
2022/10/23 02:42:01;;;;;;;11.65;6.20;;;19.50;96.70;;;;;;4978908;28;20043;-73
2022/10/23 02:44:42;;;;;;;8.60;5.63;;;19.50;96.70;;;;;;4959215;28;20474;-74
2022/10/23 02:47:20;;;;;;;12.50;6.18;;;19.50;96.70;;;;;;4967600;28;20500;-73
2022/10/23 02:49:53;;;;;;;10.63;5.72;;;19.40;96.70;;;;;;4970654;28;20081;-74
2022/10/23 02:52:27;;;;;;;7.43;5.20;;;19.40;96.70;;;;;;4952257;28;20405;-73
2022/10/23 02:55:08;;;;;;;10.63;6.15;;;19.40;96.70;;;;;;4954937;28;20700;-74
2022/10/23 02:57:51;;;;;;;8.73;5.57;;;19.40;96.70;;;;;;4963785;28;20126;-74
2022/10/23 03:00:22;;;;;;;7.40;5.22;;;19.40;96.70;;;;;;4947990;28;20541;-74
2022/10/23 03:02:56;;;;;;;9.00;5.75;;;19.50;96.70;;;;;;4987601;28;20057;-73
2022/10/23 03:05:30;;;;;;;7.65;5.55;;;19.50;96.70;;;;;;4962165;28;20074;-74
2022/10/23 03:07:58;;;;;;;7.88;5.20;;;19.60;96.70;;;;;;4975155;28;20484;-73
2022/10/23 03:10:27;;;;;;;9.40;5.63;;;19.50;96.70;;;;;;4965132;28;20039;-74
2022/10/23 03:12:55;;;;;;;9.00;5.93;;;19.50;96.70;;;;;;4976127;28;20153;-74
2022/10/23 03:15:25;;;;;;;9.27;5.43;;;19.50;96.70;;;;;;4968034;28;20054;-74
2022/10/23 03:17:53;;;;;;;9.18;5.70;;;19.50;96.70;;;;;;4979313;28;20121;-74
2022/10/23 03:20:21;;;;;;;9.10;5.38;;;19.50;96.70;;;;;;4973272;28;20070;-74
2022/10/23 03:22:50;;;;;;;7.82;5.10;;;19.50;96.70;;;;;;4972108;28;20445;-74
2022/10/23 03:25:18;;;;;;;8.65;5.38;;;19.50;96.70;;;;;;4963378;28;20166;-74
2022/10/23 03:27:47;;;;;;;9.40;5.80;;;19.50;96.70;;;;;;4976779;28;20120;-74
2022/10/23 03:30:16;;;;;;;8.40;5.15;;;19.50;96.70;;;;;;4963967;28;20078;-74
2022/10/23 03:32:50;;;;;;;6.85;5.40;;;19.50;96.70;;;;;;4976030;28;20058;-73
2022/10/23 03:35:18;;;;;;;9.77;5.93;;;19.50;96.70;;;;;;4944969;28;20059;-74
2022/10/23 03:37:46;;;;;;;9.13;5.55;;;19.50;96.70;;;;;;4963647;28;20097;-74
2022/10/23 03:40:15;;;;;;;11.18;5.75;;;19.50;96.70;;;;;;4971363;28;20064;-74
2022/10/23 03:42:44;;;;;;;8.25;4.97;;;19.50;96.70;;;;;;4968236;28;20528;-73
2022/10/23 03:45:16;;;;;;;9.70;5.15;;;19.50;96.70;;;;;;4971555;28;20035;-74
2022/10/23 03:47:44;;;;;;;9.10;5.13;;;19.50;96.70;;;;;;4976331;28;20047;-74
2022/10/23 03:50:15;;;;;;;8.15;5.50;;;19.50;96.70;;;;;;4958910;28;20193;-74
2022/10/23 03:52:44;;;;;;;9.10;5.45;;;19.60;96.70;;;;;;4974155;28;20563;-74
2022/10/23 03:55:12;;;;;;;7.28;5.35;;;19.60;96.70;;;;;;4967563;28;20535;-73
2022/10/23 03:57:41;;;;;;;9.48;5.32;;;19.60;96.70;;;;;;4972582;28;20046;-74
2022/10/23 04:00:10;;;;;;;8.15;5.60;;;19.60;96.70;;;;;;4973376;28;20046;-73
2022/10/23 04:02:45;;;;;;;9.88;5.72;;;19.70;96.70;;;;;;4956236;28;20050;-73
2022/10/23 04:05:16;;;;;;;8.15;5.45;;;19.70;96.70;;;;;;4982065;28;20564;-74
2022/10/23 04:07:53;;;;;;;10.38;5.18;;;19.70;96.70;;;;;;4983857;28;20047;-74
2022/10/23 04:10:21;;;;;;;6.13;5.28;;;19.70;96.70;;;;;;4957589;28;20081;-74
2022/10/23 04:12:50;;;;;;;9.38;5.20;;;19.70;96.70;;;;;;4972915;28;20046;-73
2022/10/23 04:15:18;;;;;;;8.68;5.82;;;19.70;96.70;;;;;;4968747;28;20524;-74
2022/10/23 04:17:46;;;;;;;8.18;5.13;;;19.80;96.70;;;;;;4955122;28;20053;-74
2022/10/23 04:20:16;;;;;;;8.25;6.18;;;19.80;96.70;;;;;;4982829;28;20141;-74
2022/10/23 04:22:44;;;;;;;7.15;5.05;;;19.80;96.70;;;;;;4965455;28;20515;-74
2022/10/23 04:25:13;;;;;;;8.55;5.25;;;19.80;96.70;;;;;;4960366;28;20053;-73
2022/10/23 04:27:41;;;;;;;9.25;5.50;;;19.80;96.70;;;;;;4961588;28;20110;-74
2022/10/23 04:30:11;;;;;;;9.27;5.68;;;19.80;96.70;;;;;;4979909;28;20042;-73
2022/10/23 04:32:40;;;;;;;9.52;5.40;;;19.80;96.70;;;;;;4966251;28;20055;-74
2022/10/23 04:35:08;;;;;;;8.73;5.88;;;19.80;96.70;;;;;;4979827;28;20530;-74
2022/10/23 04:37:38;;;;;;;8.55;5.45;;;19.80;96.70;;;;;;4972486;28;20493;-74
2022/10/23 04:40:08;;;;;;;7.78;5.43;;;19.80;96.70;;;;;;4985465;28;20060;-73
2022/10/23 04:42:37;;;;;;;9.57;5.38;;;19.80;96.70;;;;;;4980305;28;20050;-74
2022/10/23 04:45:06;;;;;;;9.32;5.70;;;19.80;96.70;;;;;;4991900;28;20081;-74
2022/10/23 04:47:35;;;;;;;10.45;6.00;;;19.80;96.70;;;;;;4982710;28;20117;-74
2022/10/23 04:50:04;;;;;;;8.32;5.60;;;19.80;96.70;;;;;;4979874;28;20548;-74
2022/10/23 04:53:12;;;;;;;12.55;6.53;;;19.80;96.70;;;;;;4921964;29;20134;-74
2022/10/23 04:56:00;;;;;;;7.28;5.95;;;19.80;96.70;;;;;;4921404;29;20060;-74
2022/10/23 04:58:44;;;;;;;7.18;5.93;;;19.70;96.70;;;;;;4953428;28;20050;-74
2022/10/23 05:01:12;;;;;;;7.45;5.50;;;19.70;96.70;;;;;;4966266;28;20053;-74
2022/10/23 05:03:41;;;;;;;9.15;5.30;;;19.70;96.70;;;;;;5001796;28;20644;-73
2022/10/23 05:06:09;;;;;;;8.82;5.78;;;19.80;96.70;;;;;;4951179;28;20194;-74
2022/10/23 05:08:57;;;;;;;7.70;5.18;;;19.80;96.70;;;;;;4977386;28;20489;-73
2022/10/23 05:11:44;;;;;;;10.88;5.93;;;19.80;96.70;;;;;;4969921;28;20556;-74
2022/10/23 05:14:13;;;;;;;7.85;5.85;;;19.80;96.70;;;;;;4971440;28;20512;-74
2022/10/23 05:16:51;;;;;;;10.75;6.07;;;19.80;96.70;;;;;;4978016;28;20046;-73
2022/10/23 05:19:22;;;;;;;7.90;4.97;;;19.80;96.70;;;;;;4975493;28;20153;-74
2022/10/23 05:21:54;;;;;;;8.95;5.97;;;19.70;96.70;;;;;;5001158;28;20445;-73
2022/10/23 05:24:33;;;;;;;8.77;5.78;;;19.70;96.70;;;;;;4953445;28;20042;-74
2022/10/23 05:27:02;;;;;;;9.85;6.03;;;19.70;96.70;;;;;;4964901;28;20050;-74
2022/10/23 05:29:31;;;;;;;8.52;6.00;;;19.70;96.70;;;;;;4965955;28;20074;-74
2022/10/23 05:32:02;;;;;;;6.22;5.40;;;19.70;96.70;;;;;;4954592;28;20191;-73
2022/10/23 05:34:34;;;;;;;8.30;6.05;;;19.80;96.70;;;;;;4943681;28;20061;-74
2022/10/23 05:37:06;;;;;;;8.60;5.78;;;19.80;96.70;;;;;;4971781;28;20120;-73
2022/10/23 05:39:40;;;;;;;6.68;5.65;;;19.70;96.70;;;;;;4974758;28;20058;-75
2022/10/23 05:42:13;;;;;;;10.20;5.85;;;19.80;96.70;;;;;;4978304;28;20648;-74
2022/10/23 05:44:42;;;;;;;10.18;6.53;;;19.80;96.70;;;;;;4948175;28;20420;-74
2022/10/23 05:47:30;;;;;;;8.85;5.97;;;19.70;96.70;;;;;;4981840;28;20677;-74
2022/10/23 05:50:18;;;;;;;8.65;5.82;;;19.70;96.70;;;;;;4951665;28;20306;-74
2022/10/23 05:53:09;;;;;;;8.18;5.95;;;19.70;96.70;;;;;;4981007;28;20124;-74
2022/10/23 05:56:04;;;;;;;10.15;6.00;;;19.70;96.70;;;;;;4949113;28;20615;-73
2022/10/23 05:59:06;;;;;;;9.60;6.68;;;19.70;96.70;;;;;;4947818;28;20061;-73
2022/10/23 06:01:52;;;;;;;9.23;7.18;;;19.80;96.70;;;;;;4987390;28;20046;-74
2022/10/23 06:04:34;;;;;;;10.07;7.38;;;19.80;96.70;;;;;;4973643;28;20116;-74
2022/10/23 06:07:28;;;;;;;11.02;8.73;;;19.80;96.70;;;;;;4956239;28;20164;-74
2022/10/23 06:10:05;;;;;;;12.82;9.25;;;19.90;96.70;;;;;;4970158;28;20049;-74
2022/10/23 06:12:39;;;;;;;12.93;9.20;;;19.80;96.70;;;;;;4985829;28;20068;-74
2022/10/23 06:15:10;;;;;;;12.95;8.73;;;19.80;96.70;;;;;;4980835;28;20119;-74
2022/10/23 06:17:59;;;;;;;;;;;19.80;96.70;;;;;;4975546;28;20529;-74
2022/10/23 06:20:27;;;;;;;12.07;8.50;;;19.80;96.70;;;;;;4960503;28;19937;-75
2022/10/23 06:23:06;;;;;;;10.90;8.23;;;19.90;96.70;;;;;;4965469;28;20074;-72
2022/10/23 06:26:04;;;;;;;10.88;8.20;;;19.90;96.70;;;;;;4921257;28;20170;-74
2022/10/23 06:28:48;;;;;;;12.55;8.00;;;19.90;96.70;;;;;;4971363;28;20077;-75
2022/10/23 06:31:25;;;;;;;11.82;7.97;;;20.00;96.70;;;;;;4969941;28;20056;-75
2022/10/23 06:33:57;;;;;;;12.30;8.13;;;20.00;96.70;;;;;;4987170;28;20096;-75
2022/10/23 06:36:26;;;;;;;14.10;7.78;;;20.00;96.70;;;;;;4975619;28;20053;-75
2022/10/23 06:39:00;;;;;;;11.13;7.82;;;20.10;96.70;;;;;;4959129;28;20061;-75
2022/10/23 06:41:48;;;;;;;10.77;7.13;;;20.10;96.70;;;;;;4987428;28;20041;-75
2022/10/23 06:44:38;;;;;;;11.38;7.38;;;20.10;96.70;;;;;;4978403;28;20046;-75
2022/10/23 06:47:12;;;;;;;11.52;7.20;;;20.20;96.70;;;;;;4943827;28;20601;-75
2022/10/23 06:50:04;;;;;;;11.52;7.13;;;20.20;96.70;;;;;;4995523;28;20070;-74
2022/10/23 06:52:32;;;;;;;9.10;7.47;;;20.30;96.70;;;;;;4983236;28;20049;-75
2022/10/23 06:55:16;;;;;;;11.05;7.13;;;20.30;96.70;;;;;;4969190;28;20093;-75
2022/10/23 06:57:45;;;;;;;9.73;7.47;;;20.30;96.70;;;;;;4966460;28;20043;-75
2022/10/23 07:00:15;;;;;;;11.13;7.35;;;20.40;96.70;;;;;;4966530;28;20049;-75
2022/10/23 07:02:51;;;;;;;11.07;7.07;;;20.40;96.70;;;;;;4968512;28;20097;-75
2022/10/23 07:05:20;;;;;;;12.93;7.25;;;20.40;96.70;;;;;;4978675;28;20057;-75
2022/10/23 07:07:48;;;;;;;9.27;7.28;;;20.50;96.70;;;;;;4974982;28;20041;-75
2022/10/23 07:10:23;;;;;;;11.90;7.47;;;20.60;96.70;;;;;;4948151;28;20527;-75
2022/10/23 07:12:59;;;;;;;12.60;7.30;;;20.60;96.70;;;;;;4971726;28;20096;-76
2022/10/23 07:15:41;;;;;;;10.07;7.13;;;20.70;96.70;;;;;;4975881;28;20046;-75
2022/10/23 07:18:15;;;;;;;9.57;7.10;;;20.70;96.70;;;;;;4966997;28;20050;-75
2022/10/23 07:21:18;;;;;;;8.85;6.95;;;20.70;96.70;;;;;;4918770;29;20518;-75
2022/10/23 07:23:49;;;;;;;11.23;6.82;;;20.80;96.70;;;;;;4969565;28;20082;-75
2022/10/23 07:26:18;;;;;;;10.00;7.07;;;20.90;96.70;;;;;;4973855;28;20054;-75
2022/10/23 07:28:50;;;;;;;9.35;7.30;;;21.00;96.70;;;;;;4960262;28;20098;-73
2022/10/23 07:31:23;;;;;;;8.93;7.20;;;21.00;96.70;;;;;;4975230;28;20046;-73
2022/10/23 07:34:13;;;;;;;11.50;7.22;;;21.00;96.70;;;;;;4977402;28;20049;-74
2022/10/23 07:36:43;;;;;;;12.45;8.02;;;21.00;96.70;;;;;;4975606;28;20145;-74
2022/10/23 07:39:12;;;;;;;13.95;7.50;;;21.10;96.70;;;;;;4953356;28;20050;-74
2022/10/23 07:41:47;;;;;;;14.30;7.45;;;21.00;96.70;;;;;;4974503;28;20057;-74
2022/10/23 07:44:18;;;;;;;10.93;7.10;;;21.00;96.70;;;;;;4967389;28;20145;-74
2022/10/23 07:46:51;;;;;;;12.65;8.68;;;21.10;96.70;;;;;;4978794;28;20648;-74
2022/10/23 07:49:19;;;;;;;12.98;9.65;;;21.10;96.70;;;;;;4972391;28;20050;-74
2022/10/23 07:51:48;;;;;;;15.52;9.88;;;21.20;96.70;;;;;;4982867;28;20054;-74
2022/10/23 07:54:19;;;;;;;10.43;9.15;;;21.20;96.70;;;;;;4960296;28;20130;-74
2022/10/23 07:57:06;;;;;;;14.00;9.32;;;21.20;96.70;;;;;;4995779;28;20516;-74
2022/10/23 07:59:42;;;;;;;12.23;9.82;;;21.20;96.70;;;;;;4974027;28;20145;-74
2022/10/23 08:02:14;;;;;;;14.55;10.13;;;21.30;96.70;;;;;;4969960;28;20042;-73
2022/10/23 08:04:43;;;;;;;13.18;10.20;;;21.30;96.70;;;;;;4954618;28;20046;-74
2022/10/23 08:07:34;;;;;;;13.95;10.48;;;21.30;96.70;;;;;;4978884;28;20074;-74
2022/10/23 08:10:03;;;;;;;12.93;9.98;;;21.30;96.70;;;;;;4957541;28;20499;-74
2022/10/23 08:12:32;;;;;;;12.13;9.75;;;21.30;96.70;;;;;;4970289;28;20050;-73
2022/10/23 08:15:00;;;;;;;16.48;10.13;;;21.40;96.70;;;;;;4960921;28;20056;-73
2022/10/23 08:17:38;;;;;;;11.13;9.20;;;21.40;96.70;;;;;;4970065;28;20046;-75
2022/10/23 08:20:16;;;;;;;15.00;10.85;;;21.50;96.70;;;;;;4995830;28;20533;-74
2022/10/23 08:22:45;;;;;;;13.32;9.63;;;21.50;96.70;;;;;;4970134;28;20065;-74
2022/10/23 08:25:19;;;;;;;16.50;11.52;;;21.60;96.70;;;;;;4987952;28;20041;-74
2022/10/23 08:27:53;;;;;;;16.10;11.60;;;21.60;96.70;;;;;;4973547;28;20077;-74
2022/10/23 08:30:21;;;;;;;18.55;12.93;;;21.70;96.70;;;;;;4991482;28;20097;-74
2022/10/23 08:32:51;;;;;;;19.63;14.73;;;21.70;96.70;;;;;;4969677;28;20056;-75
2022/10/23 08:35:20;;;;;;;17.55;14.52;;;21.70;96.70;;;;;;4982273;28;20046;-74
2022/10/23 08:37:48;;;;;;;21.65;15.98;;;21.80;96.70;;;;;;4971724;28;20073;-74
2022/10/23 08:40:18;;;;;;;27.15;16.63;;;21.80;96.70;;;;;;4977329;28;20444;-74
2022/10/23 08:43:16;;;;;;;18.60;12.80;;;21.90;96.70;;;;;;4988289;28;20650;-74
2022/10/23 08:46:03;;;;;;;17.50;11.48;;;21.90;96.70;;;;;;4968110;28;20058;-74
2022/10/23 08:49:15;;;;;;;14.07;10.48;;;22.00;96.70;;;;;;4943307;28;20093;-74
2022/10/23 08:51:56;;;;;;;14.45;10.30;;;22.00;96.70;;;;;;4969790;28;20510;-75
2022/10/23 08:54:33;;;;;;;15.40;11.23;;;22.10;96.70;;;;;;4995858;28;20133;-74
2022/10/23 08:57:02;;;;;;;;;;;22.20;96.70;;;;;;4972014;28;20101;-73
2022/10/23 08:59:38;;;;;;;17.33;14.52;;;22.20;96.70;;;;;;4979977;28;19925;-73
2022/10/23 09:02:14;;;;;;;26.83;19.60;;;22.30;96.70;;;;;;4971711;28;20172;-74
2022/10/23 09:04:47;;;;;;;24.48;19.80;;;22.30;96.70;;;;;;4979673;28;20047;-73
2022/10/23 09:07:25;;;;;;;20.95;16.58;;;22.40;96.70;;;;;;4979386;28;20392;-73
2022/10/23 09:10:02;;;;;;;18.45;14.38;;;22.50;96.70;;;;;;4990980;28;20046;-75
2022/10/23 09:12:31;;;;;;;16.60;12.65;;;22.70;96.70;;;;;;4995415;28;20050;-72
2022/10/23 09:15:17;;;;;;;12.68;9.75;;;22.80;96.70;;;;;;4953700;28;20038;-73
2022/10/23 09:17:47;;;;;;;13.40;9.27;;;22.80;96.70;;;;;;4997566;28;20050;-73
2022/10/23 09:20:22;;;;;;;16.02;9.07;;;22.90;96.70;;;;;;4978743;28;20089;-75
2022/10/23 09:22:56;;;;;;;12.93;8.82;;;22.90;96.70;;;;;;4965197;28;20050;-75
2022/10/23 09:25:27;;;;;;;10.60;7.80;;;23.00;96.70;;;;;;4970345;28;20039;-76
2022/10/23 09:27:59;;;;;;;12.40;7.32;;;23.00;96.70;;;;;;4970384;28;20506;-78
2022/10/23 09:30:33;;;;;;;11.55;7.40;;;23.00;96.70;;;;;;4962882;28;20050;-75
2022/10/23 09:33:13;;;;;;;12.13;8.02;;;23.00;96.70;;;;;;4964151;28;20058;-75
2022/10/23 09:35:55;;;;;;;11.05;7.32;;;23.10;96.70;;;;;;4968852;28;20060;-76
2022/10/23 09:38:30;;;;;;;11.98;8.07;;;23.10;96.70;;;;;;4967431;28;20042;-76
2022/10/23 09:41:01;;;;;;;12.93;7.78;;;23.20;96.70;;;;;;4957072;28;20132;-75
2022/10/23 09:43:29;;;;;;;15.98;8.75;;;23.10;96.70;;;;;;4972479;28;20043;-75
2022/10/23 09:46:04;;;;;;;11.90;7.78;;;23.10;96.70;;;;;;4968019;28;20053;-75
2022/10/23 09:48:35;;;;;;;11.93;8.18;;;23.20;96.70;;;;;;4970489;28;20058;-75
2022/10/23 09:51:17;;;;;;;15.00;9.50;;;23.20;96.70;;;;;;4975839;28;20630;-75
2022/10/23 09:53:52;;;;;;;13.63;8.80;;;23.20;96.70;;;;;;4966287;28;20689;-76
2022/10/23 09:56:26;;;;;;;16.02;9.63;;;23.20;96.70;;;;;;4991643;28;20053;-78
2022/10/23 09:58:58;;;;;;;13.20;8.30;;;23.30;96.70;;;;;;4973974;28;20052;-76
2022/10/23 10:01:28;;;;;;;13.30;8.15;;;23.20;96.70;;;;;;4970950;28;20100;-75
2022/10/23 10:04:14;;;;;;;11.95;7.80;;;23.30;96.70;;;;;;4960087;28;20046;-74
2022/10/23 10:06:44;;;;;;;10.02;8.35;;;23.30;96.70;;;;;;4983235;28;20173;-75
2022/10/23 10:09:18;;;;;;;11.23;8.48;;;23.30;96.70;;;;;;4968582;28;20078;-76
2022/10/23 10:12:01;;;;;;;13.15;8.15;;;23.40;96.70;;;;;;4981932;28;20280;-74
2022/10/23 10:14:42;;;;;;;11.07;8.27;;;23.50;96.70;;;;;;4960378;28;20114;-76
2022/10/23 10:17:20;;;;;;;12.65;8.07;;;23.60;96.70;;;;;;4965085;28;20050;-77
2022/10/23 10:20:06;;;;;;;80.47;12.85;;;23.50;96.70;;;;;;4973454;28;20042;-78
2022/10/23 10:22:41;;;;;;;28.15;8.48;;;23.50;96.70;;;;;;4966088;28;20385;-76
2022/10/23 10:25:18;;;;;;;13.88;8.80;;;23.50;96.70;;;;;;4953610;28;20046;-76
2022/10/23 10:27:56;;;;;;;11.57;8.18;;;23.50;96.70;;;;;;4959022;28;20097;-77
2022/10/23 10:30:28;;;;;;;10.73;7.80;;;23.60;96.70;;;;;;4966514;28;20070;-76
2022/10/23 10:33:02;;;;;;;13.07;7.88;;;23.70;96.70;;;;;;4962073;28;20484;-76
2022/10/23 10:35:39;;;;;;;12.57;7.18;;;23.90;96.70;;;;;;4963860;28;20511;-78
2022/10/23 10:38:31;;;;;;;11.55;7.53;;;23.90;96.70;;;;;;4952532;28;20050;-80
2022/10/23 10:41:19;;;;;;;9.30;7.72;;;24.00;96.70;;;;;;4977747;28;20055;-78
2022/10/23 10:43:57;;;;;;;9.20;7.43;;;24.10;96.70;;;;;;4967134;28;20522;-77
2022/10/23 10:46:35;;;;;;;7.90;6.90;;;24.10;96.70;;;;;;4960615;28;20056;-77
2022/10/23 10:49:11;;;;;;;13.43;7.18;;;24.20;96.70;;;;;;4958651;28;20053;-77
2022/10/23 10:52:12;;;;;;;12.70;8.20;;;24.30;96.70;;;;;;4963130;28;20432;-78
2022/10/23 10:54:53;;;;;;;13.35;7.22;;;24.30;96.70;;;;;;4951458;28;20197;-77
2022/10/23 10:57:31;;;;;;;11.23;7.10;;;24.30;96.70;;;;;;4981471;28;20412;-76
2022/10/23 11:00:03;;;;;;;10.10;6.93;;;24.40;96.70;;;;;;4968537;28;20088;-75
2022/10/23 11:02:37;;;;;;;12.13;7.30;;;24.50;96.70;;;;;;4974513;28;20145;-76
2022/10/23 11:05:17;;;;;;;10.35;7.05;;;24.50;96.70;;;;;;4959918;28;20479;-76
2022/10/23 11:07:53;;;;;;;12.55;7.18;;;24.50;96.70;;;;;;4984865;28;20050;-75
2022/10/23 11:10:23;;;;;;;10.05;7.30;;;24.50;96.70;;;;;;4978283;28;20048;-76
2022/10/23 11:12:51;;;;;;;12.02;7.70;;;24.70;96.70;;;;;;4954562;28;20327;-77
2022/10/23 11:15:24;;;;;;;12.30;7.60;;;24.70;96.70;;;;;;4987212;28;20132;-75
2022/10/23 11:17:57;;;;;;;10.43;6.60;;;24.80;96.70;;;;;;4963533;28;20824;-76
2022/10/23 11:20:45;;;;;;;11.65;6.95;;;24.70;96.70;;;;;;4979117;28;20456;-76
2022/10/23 11:23:48;;;;;;;11.85;6.88;;;24.70;96.70;;;;;;4982108;28;20138;-76
2022/10/23 11:26:41;;;;;;;9.38;6.35;;;24.80;96.70;;;;;;4942977;28;20050;-76
2022/10/23 11:29:34;;;;;;;10.98;6.50;;;24.80;96.70;;;;;;4965050;28;20072;-78
2022/10/23 11:32:18;;;;;;;11.13;7.05;;;24.90;96.70;;;;;;4976879;28;20042;-77
2022/10/23 11:35:09;;;;;;;10.38;6.72;;;24.80;96.70;;;;;;4960505;28;20053;-75
2022/10/23 11:38:26;;;;;;;12.00;6.80;;;24.70;96.70;;;;;;4954980;28;20539;-75
2022/10/23 11:41:46;;;;;;;10.25;5.85;;;24.60;96.70;;;;;;4952294;28;20062;-75
2022/10/23 11:44:41;;;;;;;14.00;7.07;;;24.50;96.70;;;;;;4951941;28;20205;-75
2022/10/23 11:47:30;;;;;;;11.73;6.93;;;24.50;96.70;;;;;;4942926;28;20413;-75
2022/10/23 11:50:24;;;;;;;8.50;6.55;;;24.50;96.70;;;;;;4947462;28;20074;-75
2022/10/23 11:52:57;;;;;;;10.77;6.68;;;24.50;96.70;;;;;;4952256;28;20048;-75
2022/10/23 11:56:00;;;;;;;10.50;6.32;;;24.60;96.70;;;;;;4962874;28;20588;-76
2022/10/23 11:58:42;;;;;;;9.63;6.30;;;24.60;96.70;;;;;;4952761;28;20043;-75
2022/10/23 12:01:35;;;;;;;9.65;6.78;;;24.70;96.70;;;;;;4951141;28;20135;-75
2022/10/23 12:04:15;;;;;;;12.70;7.18;;;24.60;96.70;;;;;;4931212;29;20057;-75
2022/10/23 12:06:46;;;;;;;9.60;6.20;;;24.60;96.70;;;;;;4964181;28;20162;-75
2022/10/23 12:09:28;;;;;;;15.70;7.30;;;24.70;96.70;;;;;;4948224;28;20137;-75
2022/10/23 12:12:16;;;;;;;11.57;6.43;;;24.80;96.70;;;;;;4952263;28;20059;-75
2022/10/23 12:14:49;;;;;;;10.45;6.45;;;24.90;96.70;;;;;;4948700;28;20048;-76
2022/10/23 12:17:34;;;;;;;12.60;6.70;;;25.00;96.70;;;;;;4942170;29;20047;-76
2022/10/23 12:20:24;;;;;;;14.02;6.70;;;25.20;96.70;;;;;;4957675;28;20046;-76
2022/10/23 12:23:34;;;;;;;10.88;7.32;;;25.20;96.70;;;;;;4942760;28;20075;-76
2022/10/23 12:26:36;;;;;;;8.90;6.40;;;25.30;96.70;;;;;;4904522;28;20059;-77
2022/10/23 12:29:17;;;;;;;8.02;6.05;;;25.30;96.70;;;;;;4938175;29;20047;-76
2022/10/23 12:31:54;;;;;;;9.13;6.35;;;25.40;96.70;;;;;;4968296;28;20425;-77
2022/10/23 12:34:35;;;;;;;10.55;7.15;;;25.40;96.70;;;;;;4950949;28;20524;-77
2022/10/23 12:37:36;;;;;;;12.50;7.78;;;25.40;96.70;;;;;;4953819;28;20053;-77
2022/10/23 12:40:08;;;;;;;13.93;7.72;;;25.30;96.70;;;;;;4960396;28;20055;-76
2022/10/23 12:42:37;;;;;;;8.68;7.43;;;25.30;96.70;;;;;;4967639;28;20042;-76
2022/10/23 12:45:17;;;;;;;9.20;5.78;;;25.30;96.70;;;;;;4937855;28;20050;-77
2022/10/23 12:47:48;;;;;;;12.05;6.88;;;25.20;96.70;;;;;;4970584;28;20065;-77
2022/10/23 12:50:18;;;;;;;9.73;6.30;;;25.20;96.70;;;;;;4954699;28;20056;-77
2022/10/23 12:52:51;;;;;;;9.40;6.68;;;25.30;96.70;;;;;;4964201;28;20133;-74
2022/10/23 12:55:20;;;;;;;12.68;6.32;;;25.40;96.70;;;;;;4978661;28;20038;-75
2022/10/23 12:57:49;;;;;;;11.45;6.85;;;25.50;96.70;;;;;;4952551;28;20047;-76
2022/10/23 13:00:19;;;;;;;10.27;6.30;;;25.60;96.70;;;;;;4950321;28;20046;-75
2022/10/23 13:02:59;;;;;;;15.18;9.68;;;25.60;96.70;;;;;;4956998;28;20051;-77
2022/10/23 13:05:30;;;;;;;10.18;7.65;;;25.60;96.70;;;;;;4975919;28;20453;-76
2022/10/23 13:08:01;;;;;;;11.60;7.60;;;25.70;96.70;;;;;;4961445;28;20054;-77
2022/10/23 13:10:47;;;;;;;12.48;6.68;;;25.80;96.70;;;;;;4946182;28;20053;-76
2022/10/23 13:13:22;;;;;;;14.20;7.35;;;25.80;96.70;;;;;;4949627;28;20053;-75
2022/10/23 13:15:51;;;;;;;10.10;6.15;;;25.90;96.70;;;;;;4952107;28;20039;-75
2022/10/23 13:18:20;;;;;;;9.18;5.97;;;25.80;96.70;;;;;;4964989;28;20468;-75
2022/10/23 13:20:57;;;;;;;10.07;6.38;;;25.80;96.70;;;;;;4947371;28;20559;-76
2022/10/23 13:23:31;;;;;;;11.45;6.55;;;25.80;96.70;;;;;;4964468;28;20078;-76
2022/10/23 13:26:01;;;;;;;8.40;6.32;;;25.80;96.70;;;;;;4959601;28;20065;-77